Time;durP1;ratioP1;P1;durP2;ratioP2;P2;SDS_P1;SDS_P2;PMS_P1;PMS_P2;Temp;Humidity;BMP_temperature;BMP_pressure;BME280_temperature;BME280_humidity;BME280_pressure;Samples;Min_cycle;Max_cycle;Signal;HPM_P1;HPM_P2
2023/07/29 00:00:27;;;;;;;41.92;18.80;;;16.90;99.90;;;;;;4949286;28;20102;-69
2023/07/29 00:02:53;;;;;;;34.28;19.17;;;16.90;99.90;;;;;;4953502;28;20027;-70
2023/07/29 00:05:18;;;;;;;44.47;20.58;;;16.90;99.90;;;;;;4948629;28;20094;-70
2023/07/29 00:07:44;;;;;;;36.90;20.67;;;16.90;99.90;;;;;;4956689;28;20487;-69
2023/07/29 00:10:09;;;;;;;38.05;19.83;;;16.90;99.90;;;;;;4950186;28;20055;-72
2023/07/29 00:12:35;;;;;;;35.47;19.25;;;16.90;99.90;;;;;;4953876;28;20124;-69
2023/07/29 00:15:00;;;;;;;39.15;20.75;;;16.90;99.90;;;;;;4957031;28;20419;-72
2023/07/29 00:17:26;;;;;;;42.50;20.00;;;16.90;99.90;;;;;;4963766;28;20043;-69
2023/07/29 00:19:52;;;;;;;38.75;21.63;;;16.90;99.90;;;;;;4953853;28;20458;-69
2023/07/29 00:22:17;;;;;;;43.47;21.80;;;16.90;99.90;;;;;;4951828;28;20096;-69
2023/07/29 00:24:42;;;;;;;42.63;21.15;;;16.90;99.90;;;;;;4948211;28;20469;-70
2023/07/29 00:27:08;;;;;;;40.65;21.77;;;17.00;99.90;;;;;;4980554;28;20057;-70
2023/07/29 00:29:33;;;;;;;41.88;22.13;;;17.00;99.90;;;;;;4952388;28;20047;-68
2023/07/29 00:31:59;;;;;;;44.55;22.95;;;17.00;99.90;;;;;;4956590;28;20074;-69
2023/07/29 00:34:24;;;;;;;39.78;22.23;;;17.00;99.90;;;;;;4954152;28;20368;-70
2023/07/29 00:36:50;;;;;;;42.03;22.77;;;17.10;99.90;;;;;;4951897;28;20118;-69
2023/07/29 00:39:15;;;;;;;41.65;23.60;;;17.10;99.90;;;;;;4940822;28;20111;-69
2023/07/29 00:41:41;;;;;;;46.00;24.17;;;17.10;99.90;;;;;;4948085;29;20054;-69
2023/07/29 00:44:06;;;;;;;45.20;23.90;;;17.20;99.90;;;;;;4981531;28;20479;-69
2023/07/29 00:46:34;;;;;;;41.33;23.00;;;17.20;99.90;;;;;;4953044;28;20039;-69
2023/07/29 00:49:00;;;;;;;51.13;23.98;;;17.30;99.90;;;;;;4952706;28;20156;-69
2023/07/29 00:51:25;;;;;;;42.50;23.65;;;17.30;99.90;;;;;;4948118;28;20027;-69
2023/07/29 00:53:51;;;;;;;43.65;22.30;;;17.30;99.90;;;;;;4943039;28;20035;-70
2023/07/29 00:56:17;;;;;;;46.33;23.23;;;17.50;99.90;;;;;;4953388;28;20058;-69
2023/07/29 00:58:42;;;;;;;43.25;22.73;;;17.50;99.90;;;;;;4949735;29;20035;-70
2023/07/29 01:01:08;;;;;;;47.35;22.48;;;17.50;99.90;;;;;;4952817;28;20050;-70
2023/07/29 01:03:34;;;;;;;40.67;22.27;;;17.50;99.90;;;;;;4952602;28;20382;-71
2023/07/29 01:06:33;;;;;;;40.72;21.75;;;17.50;99.90;;;;;;4956779;28;20058;-69
2023/07/29 01:09:04;;;;;;;44.17;22.33;;;17.50;99.90;;;;;;4949442;28;20059;-69
2023/07/29 01:12:23;;;;;;;41.40;21.88;;;17.50;99.90;;;;;;4950765;28;20027;-69
2023/07/29 01:15:08;;;;;;;35.45;20.95;;;17.50;99.90;;;;;;4905925;29;20045;-69
2023/07/29 01:17:54;;;;;;;46.55;22.20;;;17.50;99.90;;;;;;4958627;28;20066;-69
2023/07/29 01:20:20;;;;;;;37.22;21.60;;;17.60;99.90;;;;;;4954427;28;20031;-68
2023/07/29 01:22:48;;;;;;;34.92;20.42;;;17.50;99.90;;;;;;4950240;28;20038;-72
2023/07/29 01:25:13;;;;;;;37.63;21.17;;;17.50;99.90;;;;;;4948882;28;20031;-69
2023/07/29 01:27:40;;;;;;;40.15;20.92;;;17.60;99.90;;;;;;4950039;28;20075;-69
2023/07/29 01:30:06;;;;;;;37.47;20.80;;;17.60;99.90;;;;;;4952731;29;20035;-69
2023/07/29 01:32:53;;;;;;;42.97;21.45;;;17.50;99.90;;;;;;4952180;28;20059;-69
2023/07/29 01:35:44;;;;;;;38.22;20.30;;;17.50;99.90;;;;;;4951081;28;20039;-69
2023/07/29 01:38:14;;;;;;;;;;;17.50;99.90;;;;;;4944138;28;20467;-69
2023/07/29 01:40:40;;;;;;;35.13;19.98;;;17.50;99.90;;;;;;4958843;28;20008;-69
2023/07/29 01:43:08;;;;;;;40.30;21.63;;;17.40;99.90;;;;;;4946477;29;20027;-69
2023/07/29 01:45:37;;;;;;;34.75;19.25;;;17.30;99.90;;;;;;4952066;28;20028;-69
2023/07/29 01:48:06;;;;;;;37.17;20.45;;;17.30;99.90;;;;;;4960340;28;20193;-70
2023/07/29 01:50:32;;;;;;;40.00;20.67;;;17.20;99.90;;;;;;4942989;28;20464;-69
2023/07/29 01:52:58;;;;;;;41.65;22.00;;;17.20;99.90;;;;;;4947144;28;20045;-71
2023/07/29 01:55:24;;;;;;;40.72;21.95;;;17.20;99.90;;;;;;4943158;28;20472;-71
2023/07/29 01:57:51;;;;;;;44.35;21.17;;;17.20;99.90;;;;;;4942562;28;20050;-69
2023/07/29 02:00:16;;;;;;;41.25;22.25;;;17.30;99.90;;;;;;4952719;28;20030;-69
2023/07/29 02:02:42;;;;;;;44.35;22.50;;;17.30;99.90;;;;;;4950548;28;20027;-70
2023/07/29 02:05:07;;;;;;;42.70;22.33;;;17.30;99.90;;;;;;4944014;28;20031;-68
2023/07/29 02:07:33;;;;;;;45.03;23.20;;;17.40;99.90;;;;;;4953113;28;20114;-69
2023/07/29 02:09:59;;;;;;;46.28;23.52;;;17.40;99.90;;;;;;4948378;28;20538;-70
2023/07/29 02:12:24;;;;;;;44.90;23.48;;;17.30;99.90;;;;;;4950621;28;20035;-70
2023/07/29 02:14:50;;;;;;;46.28;23.95;;;17.30;99.90;;;;;;4951089;28;20075;-70
2023/07/29 02:17:15;;;;;;;50.67;24.50;;;17.30;99.90;;;;;;4951650;29;20423;-70
2023/07/29 02:19:41;;;;;;;50.47;24.75;;;17.30;99.90;;;;;;4953557;28;20115;-69
2023/07/29 02:22:06;;;;;;;46.50;23.95;;;17.10;99.90;;;;;;4946985;29;20047;-69
2023/07/29 02:24:32;;;;;;;45.97;23.77;;;17.10;99.90;;;;;;4945064;28;20042;-69
2023/07/29 02:26:57;;;;;;;50.22;24.80;;;17.10;99.90;;;;;;4949133;28;20039;-70
2023/07/29 02:29:23;;;;;;;51.15;25.13;;;17.10;99.90;;;;;;4949683;28;20035;-71
2023/07/29 02:31:48;;;;;;;51.63;25.63;;;17.00;99.90;;;;;;4949483;28;20435;-69
2023/07/29 02:34:14;;;;;;;53.33;25.38;;;17.00;99.90;;;;;;4950975;28;20114;-69
2023/07/29 02:36:39;;;;;;;46.75;25.52;;;17.00;99.90;;;;;;4950113;28;20072;-69
2023/07/29 02:39:05;;;;;;;54.92;26.13;;;17.00;99.90;;;;;;4945078;28;20036;-69
2023/07/29 02:41:31;;;;;;;55.25;26.95;;;16.90;99.90;;;;;;4954874;28;20356;-69
2023/07/29 02:43:57;;;;;;;63.25;28.10;;;16.90;99.90;;;;;;4952085;28;20027;-70
2023/07/29 02:46:22;;;;;;;61.25;27.90;;;16.80;99.90;;;;;;4950134;28;20169;-70
2023/07/29 02:48:47;;;;;;;60.30;27.17;;;16.80;99.90;;;;;;4949362;28;20039;-69
2023/07/29 02:51:13;;;;;;;55.50;26.98;;;16.90;99.90;;;;;;4948541;28;20560;-69
2023/07/29 02:53:38;;;;;;;62.30;28.00;;;16.90;99.90;;;;;;4946619;28;20046;-69
2023/07/29 02:56:06;;;;;;;62.33;28.38;;;16.90;99.90;;;;;;4953203;28;20080;-70
2023/07/29 02:58:31;;;;;;;66.85;29.23;;;16.80;99.90;;;;;;4952476;28;20126;-71
2023/07/29 03:01:05;;;;;;;54.70;28.60;;;16.80;99.90;;;;;;4951802;28;20129;-70
2023/07/29 03:03:31;;;;;;;63.38;30.02;;;16.80;99.90;;;;;;4949798;28;20031;-69
2023/07/29 03:06:01;;;;;;;62.85;30.55;;;16.90;99.90;;;;;;4946109;28;20035;-70
2023/07/29 03:08:26;;;;;;;72.03;30.97;;;16.80;99.90;;;;;;4949101;28;21172;-69
2023/07/29 03:10:52;;;;;;;66.18;30.77;;;16.80;99.90;;;;;;4947912;28;20039;-70
2023/07/29 03:13:17;;;;;;;65.30;30.60;;;16.80;99.90;;;;;;4945329;29;20067;-69
2023/07/29 03:15:42;;;;;;;66.80;30.92;;;16.80;99.90;;;;;;4948382;28;20035;-70
2023/07/29 03:18:08;;;;;;;67.75;32.40;;;16.80;99.90;;;;;;4955896;28;20513;-71
2023/07/29 03:20:33;;;;;;;63.63;30.48;;;16.80;99.90;;;;;;4950095;28;20043;-69
2023/07/29 03:22:59;;;;;;;66.45;30.00;;;16.80;99.90;;;;;;4940398;28;20110;-70
2023/07/29 03:25:24;;;;;;;69.93;30.67;;;16.80;99.90;;;;;;4943719;28;20404;-70
2023/07/29 03:27:50;;;;;;;79.18;32.22;;;16.70;99.90;;;;;;4949164;28;20085;-69
2023/07/29 03:30:20;;;;;;;74.53;32.85;;;16.70;99.90;;;;;;4950578;28;20103;-69
2023/07/29 03:32:45;;;;;;;71.97;31.77;;;16.70;99.90;;;;;;4950942;28;20039;-69
2023/07/29 03:35:11;;;;;;;79.20;31.00;;;16.70;99.90;;;;;;4950211;28;20038;-69
2023/07/29 03:37:36;;;;;;;75.97;31.92;;;16.60;99.90;;;;;;4950047;28;20427;-69
2023/07/29 03:40:02;;;;;;;83.43;32.28;;;16.70;99.90;;;;;;4947083;28;20036;-69
2023/07/29 03:42:28;;;;;;;79.78;32.33;;;16.60;99.90;;;;;;4950569;28;20027;-69
2023/07/29 03:44:54;;;;;;;81.72;32.47;;;16.60;99.90;;;;;;4956393;28;20442;-71
2023/07/29 03:47:19;;;;;;;87.13;33.05;;;16.50;99.90;;;;;;4947007;28;20432;-69
2023/07/29 03:49:44;;;;;;;90.35;33.08;;;16.50;99.90;;;;;;4945178;28;20122;-71
2023/07/29 03:52:10;;;;;;;93.30;33.00;;;16.50;99.90;;;;;;4973180;28;20058;-69
2023/07/29 03:54:35;;;;;;;79.53;32.95;;;16.50;99.90;;;;;;4947182;28;20039;-69
2023/07/29 03:57:01;;;;;;;89.25;33.25;;;16.50;99.90;;;;;;4947589;28;20106;-69
2023/07/29 03:59:26;;;;;;;83.75;34.10;;;16.50;99.90;;;;;;4948752;29;20031;-69
2023/07/29 04:01:52;;;;;;;87.18;34.42;;;16.50;99.90;;;;;;4950927;28;20051;-69
2023/07/29 04:04:17;;;;;;;98.65;34.17;;;16.50;99.90;;;;;;4944139;28;20039;-69
2023/07/29 04:06:43;;;;;;;99.30;34.90;;;16.50;99.90;;;;;;4949658;28;20035;-70
2023/07/29 04:09:09;;;;;;;99.40;35.60;;;16.50;99.90;;;;;;4948910;28;20090;-69
2023/07/29 04:11:34;;;;;;;102.00;36.28;;;16.50;99.90;;;;;;4945662;28;20031;-70
2023/07/29 04:14:00;;;;;;;103.35;37.35;;;16.60;99.90;;;;;;4952693;28;20019;-69
2023/07/29 04:16:26;;;;;;;118.40;38.83;;;16.60;99.90;;;;;;4949414;28;20393;-69
2023/07/29 04:18:51;;;;;;;110.68;37.72;;;16.70;99.90;;;;;;4947414;28;20028;-69
2023/07/29 04:21:17;;;;;;;106.90;39.13;;;16.70;99.90;;;;;;4950222;28;20637;-70
2023/07/29 04:23:42;;;;;;;123.15;39.83;;;16.70;99.90;;;;;;4948343;29;20086;-69
2023/07/29 04:26:07;;;;;;;100.53;38.45;;;16.80;99.90;;;;;;4945982;28;20102;-69
2023/07/29 04:28:33;;;;;;;97.38;38.20;;;16.80;99.90;;;;;;4946972;28;20399;-67
2023/07/29 04:30:59;;;;;;;110.05;38.03;;;16.80;99.90;;;;;;4950115;28;20070;-68
2023/07/29 04:33:25;;;;;;;104.30;39.65;;;16.90;99.90;;;;;;4948285;28;20039;-68
2023/07/29 04:35:50;;;;;;;92.15;38.70;;;16.90;99.90;;;;;;4949486;28;20531;-68
2023/07/29 04:38:16;;;;;;;93.20;36.83;;;16.90;99.90;;;;;;4949225;29;20042;-67
2023/07/29 04:40:41;;;;;;;97.93;36.63;;;16.90;99.90;;;;;;4945776;28;20082;-68
2023/07/29 04:43:06;;;;;;;92.82;36.70;;;16.90;99.90;;;;;;4948495;28;20441;-68
2023/07/29 04:45:32;;;;;;;94.22;37.80;;;17.00;99.90;;;;;;4947396;28;20038;-68
2023/07/29 04:47:58;;;;;;;97.72;35.78;;;17.00;99.90;;;;;;4953171;28;20483;-70
2023/07/29 04:50:24;;;;;;;100.72;36.03;;;17.00;99.90;;;;;;4945859;28;20478;-68
2023/07/29 04:52:49;;;;;;;85.47;34.47;;;17.00;99.90;;;;;;4959053;28;20034;-68
2023/07/29 04:55:15;;;;;;;84.25;35.85;;;17.10;99.90;;;;;;4948402;28;20387;-70
2023/07/29 04:57:40;;;;;;;83.10;36.13;;;17.10;99.90;;;;;;4950286;28;20035;-68
2023/07/29 05:00:06;;;;;;;75.43;34.50;;;17.20;99.90;;;;;;4953438;28;20031;-68
2023/07/29 05:02:32;;;;;;;75.15;33.63;;;17.20;99.90;;;;;;4951648;29;20118;-68
2023/07/29 05:04:57;;;;;;;80.53;33.95;;;17.30;99.90;;;;;;4957721;28;20114;-68
2023/07/29 05:07:23;;;;;;;74.55;33.75;;;17.20;99.90;;;;;;4952227;28;20479;-68
2023/07/29 05:09:48;;;;;;;72.38;32.03;;;17.30;99.90;;;;;;4948607;28;20138;-68
2023/07/29 05:12:14;;;;;;;69.28;32.30;;;17.40;99.90;;;;;;4955459;28;20039;-69
2023/07/29 05:14:39;;;;;;;73.55;32.50;;;17.50;99.90;;;;;;4946610;28;20383;-68
2023/07/29 05:17:05;;;;;;;61.08;30.73;;;17.50;99.90;;;;;;4951901;28;20441;-68
2023/07/29 05:19:31;;;;;;;56.40;29.90;;;17.60;99.90;;;;;;4950974;28;20142;-68
2023/07/29 05:21:57;;;;;;;57.17;30.42;;;17.60;99.90;;;;;;4955868;28;20155;-67
2023/07/29 05:24:23;;;;;;;50.78;28.00;;;17.60;99.90;;;;;;4951258;28;20610;-68
2023/07/29 05:26:48;;;;;;;50.50;27.35;;;17.70;99.90;;;;;;4951944;28;20198;-69
2023/07/29 05:29:14;;;;;;;46.40;25.67;;;17.90;99.90;;;;;;4955089;28;20411;-72
2023/07/29 05:31:39;;;;;;;45.53;25.15;;;18.00;99.90;;;;;;4953149;28;20428;-67
2023/07/29 05:34:05;;;;;;;42.70;24.88;;;18.00;99.90;;;;;;4951081;28;20032;-67
2023/07/29 05:36:30;;;;;;;40.55;23.17;;;18.00;99.90;;;;;;4951809;29;20467;-67
2023/07/29 05:38:55;;;;;;;39.10;22.40;;;18.00;99.90;;;;;;4952933;28;20038;-69
2023/07/29 05:41:21;;;;;;;32.60;20.25;;;18.00;99.90;;;;;;4952212;28;20113;-71
2023/07/29 05:43:46;;;;;;;33.88;19.60;;;18.00;99.90;;;;;;4950437;28;20036;-67
2023/07/29 05:46:12;;;;;;;29.13;19.25;;;18.10;99.90;;;;;;4951852;29;20357;-67
2023/07/29 05:48:38;;;;;;;24.90;17.70;;;18.10;99.90;;;;;;4951870;29;20098;-67
2023/07/29 05:51:05;;;;;;;26.70;16.67;;;18.00;99.90;;;;;;4948596;28;20054;-68
2023/07/29 05:53:31;;;;;;;21.35;16.65;;;18.10;99.90;;;;;;4948034;28;20024;-68
2023/07/29 05:55:56;;;;;;;21.65;16.15;;;18.20;99.90;;;;;;4947329;28;20090;-67
2023/07/29 05:58:22;;;;;;;22.70;15.70;;;18.30;99.90;;;;;;4950393;29;20090;-67
2023/07/29 06:00:47;;;;;;;21.30;14.93;;;18.30;99.90;;;;;;4951942;28;20034;-67
2023/07/29 06:03:13;;;;;;;18.73;14.07;;;18.30;99.90;;;;;;4949926;28;20420;-69
2023/07/29 06:05:39;;;;;;;22.98;13.95;;;18.40;99.90;;;;;;4951383;28;20098;-67
2023/07/29 06:08:04;;;;;;;19.20;14.07;;;18.40;99.90;;;;;;4953205;28;20046;-69
2023/07/29 06:10:30;;;;;;;22.30;14.23;;;18.40;99.90;;;;;;4946492;28;20051;-67
2023/07/29 06:12:55;;;;;;;16.73;12.45;;;18.50;99.90;;;;;;4947961;28;20039;-68
2023/07/29 06:15:22;;;;;;;18.95;12.38;;;18.50;99.90;;;;;;4947354;29;20039;-67
2023/07/29 06:17:48;;;;;;;18.50;12.73;;;18.70;99.80;;;;;;4950013;28;20467;-68
2023/07/29 06:20:13;;;;;;;17.88;12.20;;;18.70;99.70;;;;;;4948664;28;20035;-67
2023/07/29 06:22:39;;;;;;;19.08;12.48;;;18.90;99.70;;;;;;4950689;28;20039;-69
2023/07/29 06:25:04;;;;;;;15.77;11.95;;;19.10;99.70;;;;;;4949502;28;20050;-67
2023/07/29 06:27:30;;;;;;;18.38;11.43;;;19.10;99.30;;;;;;4947377;28;20046;-68
2023/07/29 06:29:55;;;;;;;16.08;11.10;;;19.30;99.10;;;;;;4950402;28;20035;-73
2023/07/29 06:32:21;;;;;;;16.30;10.65;;;19.30;98.90;;;;;;4948770;28;20031;-67
2023/07/29 06:34:46;;;;;;;14.32;10.70;;;19.10;98.50;;;;;;4948647;28;20502;-68
2023/07/29 06:37:12;;;;;;;13.13;9.45;;;19.10;98.50;;;;;;4949329;29;20058;-68
2023/07/29 06:39:37;;;;;;;13.75;9.57;;;19.10;98.70;;;;;;4950601;28;20122;-68
2023/07/29 06:42:03;;;;;;;13.15;9.60;;;19.20;98.80;;;;;;4945870;28;20130;-67
2023/07/29 06:44:28;;;;;;;15.57;8.82;;;19.20;98.80;;;;;;4953631;28;20133;-67
2023/07/29 06:46:54;;;;;;;12.50;9.45;;;19.00;98.30;;;;;;4951397;28;20035;-68
2023/07/29 06:49:19;;;;;;;12.00;8.38;;;19.00;98.50;;;;;;4953424;28;20501;-67
2023/07/29 06:51:45;;;;;;;13.60;8.38;;;19.00;98.60;;;;;;4960741;28;20031;-68
2023/07/29 06:54:10;;;;;;;12.75;8.15;;;19.00;98.60;;;;;;4946830;28;20090;-71
2023/07/29 06:56:36;;;;;;;13.40;9.10;;;18.90;98.70;;;;;;4940301;28;20050;-68
2023/07/29 06:59:02;;;;;;;13.57;9.18;;;18.90;98.70;;;;;;4947816;28;20023;-67
2023/07/29 07:01:27;;;;;;;12.80;8.85;;;18.90;98.80;;;;;;4952103;28;20038;-67
2023/07/29 07:03:54;;;;;;;11.15;8.93;;;19.00;98.90;;;;;;4945701;28;20031;-67
2023/07/29 07:06:21;;;;;;;11.13;9.07;;;19.00;98.80;;;;;;4949384;28;20114;-70
2023/07/29 07:08:48;;;;;;;13.80;8.68;;;18.90;98.80;;;;;;4948487;28;20436;-71
2023/07/29 07:11:13;;;;;;;12.00;9.07;;;18.90;98.80;;;;;;4944841;28;20050;-67
2023/07/29 07:13:39;;;;;;;12.95;9.40;;;19.00;98.80;;;;;;4942545;28;20031;-67
2023/07/29 07:16:04;;;;;;;11.77;9.23;;;19.00;98.80;;;;;;4943494;28;20431;-69
2023/07/29 07:18:30;;;;;;;11.57;8.73;;;19.10;98.80;;;;;;4948471;28;20046;-70
2023/07/29 07:20:55;;;;;;;15.52;8.70;;;19.10;98.70;;;;;;4944586;28;20039;-68
2023/07/29 07:23:21;;;;;;;11.27;8.88;;;19.10;98.50;;;;;;4974698;28;20049;-67
2023/07/29 07:25:46;;;;;;;11.75;8.75;;;19.20;98.40;;;;;;4944409;28;20450;-68
2023/07/29 07:28:12;;;;;;;11.70;8.70;;;19.20;98.40;;;;;;4943214;28;20035;-67
2023/07/29 07:30:44;;;;;;;12.88;8.25;;;19.10;98.10;;;;;;4948367;28;20122;-67
2023/07/29 07:33:09;;;;;;;11.20;8.45;;;19.20;98.40;;;;;;4950247;28;20031;-66
2023/07/29 07:35:35;;;;;;;13.10;7.80;;;19.30;98.40;;;;;;4948146;28;20420;-67
2023/07/29 07:38:02;;;;;;;12.38;7.93;;;19.30;98.30;;;;;;4946475;28;20455;-66
2023/07/29 07:40:27;;;;;;;11.95;8.00;;;19.30;98.30;;;;;;4941161;28;20075;-71
2023/07/29 07:42:53;;;;;;;12.55;8.55;;;19.30;98.20;;;;;;4945188;28;20038;-68
2023/07/29 07:45:19;;;;;;;11.40;8.60;;;19.30;97.90;;;;;;4944339;28;20101;-66
2023/07/29 07:47:45;;;;;;;13.02;8.00;;;19.30;97.80;;;;;;4947961;28;20037;-66
2023/07/29 07:50:10;;;;;;;17.52;9.82;;;19.30;97.90;;;;;;4944613;28;20480;-66
2023/07/29 07:52:36;;;;;;;14.43;9.93;;;19.40;97.90;;;;;;4944743;28;20444;-66
2023/07/29 07:55:02;;;;;;;12.40;9.93;;;19.40;97.60;;;;;;4948330;28;20106;-67
2023/07/29 07:57:27;;;;;;;15.82;10.82;;;19.40;97.50;;;;;;4946792;29;20047;-68
2023/07/29 07:59:53;;;;;;;13.93;10.75;;;19.50;97.30;;;;;;4949269;28;20034;-68
2023/07/29 08:02:19;;;;;;;13.52;10.52;;;19.50;96.70;;;;;;4947479;28;20110;-66
2023/07/29 08:04:44;;;;;;;12.43;10.38;;;19.60;96.90;;;;;;4941429;28;20144;-67
2023/07/29 08:07:10;;;;;;;14.30;10.13;;;19.60;96.50;;;;;;4948761;28;20043;-66
2023/07/29 08:09:35;;;;;;;14.85;10.25;;;19.70;96.80;;;;;;4947551;28;20087;-66
2023/07/29 08:12:00;;;;;;;14.02;9.75;;;19.60;96.40;;;;;;4947223;28;20392;-67
2023/07/29 08:14:26;;;;;;;14.15;10.82;;;19.60;96.70;;;;;;4944917;28;20023;-66
2023/07/29 08:16:52;;;;;;;14.43;10.90;;;19.50;96.70;;;;;;4948540;28;20134;-66
2023/07/29 08:19:17;;;;;;;14.52;11.82;;;19.60;96.60;;;;;;4949562;28;20305;-67
2023/07/29 08:21:43;;;;;;;13.80;11.25;;;19.70;96.30;;;;;;4947920;28;20027;-66
2023/07/29 08:24:08;;;;;;;15.35;11.38;;;19.70;95.80;;;;;;4950670;28;20062;-67
2023/07/29 08:26:34;;;;;;;12.75;10.95;;;19.70;96.20;;;;;;4945395;28;20035;-68
2023/07/29 08:28:59;;;;;;;14.32;11.65;;;19.70;96.10;;;;;;4952957;28;20114;-66
2023/07/29 08:31:25;;;;;;;14.57;11.70;;;19.60;95.90;;;;;;4953363;28;20039;-66
2023/07/29 08:33:50;;;;;;;14.40;11.13;;;19.70;95.90;;;;;;4955739;28;20055;-67
2023/07/29 08:36:16;;;;;;;13.85;11.32;;;19.70;95.60;;;;;;4950523;28;20038;-66
2023/07/29 08:38:41;;;;;;;14.00;11.48;;;19.60;95.90;;;;;;4952210;28;20047;-66
2023/07/29 08:41:18;;;;;;;14.23;11.80;;;19.70;96.00;;;;;;4950802;28;20039;-66
2023/07/29 08:43:56;;;;;;;14.07;12.57;;;19.70;95.80;;;;;;4950606;28;20027;-66
2023/07/29 08:46:22;;;;;;;13.43;11.30;;;19.80;95.60;;;;;;4951506;28;20383;-66
2023/07/29 08:48:49;;;;;;;16.13;12.27;;;19.80;95.60;;;;;;4961174;28;20038;-66
2023/07/29 08:51:15;;;;;;;15.00;12.02;;;20.00;95.30;;;;;;4944343;28;20039;-67
2023/07/29 08:53:41;;;;;;;14.63;11.48;;;20.10;95.30;;;;;;4954132;28;20128;-68
2023/07/29 08:56:07;;;;;;;14.27;10.52;;;20.30;94.10;;;;;;4957295;28;20574;-68
2023/07/29 08:58:33;;;;;;;11.23;10.07;;;20.40;93.60;;;;;;4948985;28;20027;-66
2023/07/29 09:01:00;;;;;;;12.35;9.55;;;20.60;93.40;;;;;;4949093;28;20052;-67
2023/07/29 09:03:25;;;;;;;12.13;9.25;;;20.60;92.70;;;;;;4943063;28;20491;-67
2023/07/29 09:05:51;;;;;;;12.45;8.75;;;20.70;92.80;;;;;;4951093;28;20159;-66
2023/07/29 09:08:17;;;;;;;13.60;9.35;;;20.60;92.30;;;;;;4952578;28;20042;-68
2023/07/29 09:10:43;;;;;;;12.40;9.43;;;20.70;92.70;;;;;;4953212;28;20336;-67
2023/07/29 09:13:09;;;;;;;10.63;8.38;;;20.70;91.90;;;;;;4946607;28;20023;-67
2023/07/29 09:15:36;;;;;;;10.63;8.05;;;20.70;91.70;;;;;;4951282;28;20463;-66
2023/07/29 09:18:15;;;;;;;11.55;8.10;;;20.80;91.50;;;;;;4945361;29;20340;-66
2023/07/29 09:20:40;;;;;;;9.50;7.25;;;20.80;91.20;;;;;;4957169;28;20424;-67
2023/07/29 09:23:10;;;;;;;9.65;7.20;;;20.90;91.30;;;;;;4949292;28;20023;-67
2023/07/29 09:25:36;;;;;;;8.82;7.00;;;21.00;90.00;;;;;;4938118;29;20019;-67
2023/07/29 09:28:07;;;;;;;7.80;5.95;;;21.10;90.50;;;;;;4947605;28;20031;-67
2023/07/29 09:30:33;;;;;;;9.70;6.55;;;21.50;89.20;;;;;;4951810;28;20042;-66
2023/07/29 09:32:59;;;;;;;7.70;5.78;;;21.70;89.10;;;;;;4954595;28;20106;-67
2023/07/29 09:35:28;;;;;;;7.15;4.88;;;22.00;88.20;;;;;;4950602;28;20027;-70
2023/07/29 09:37:53;;;;;;;8.02;5.15;;;22.00;87.30;;;;;;4946632;28;20465;-66
2023/07/29 09:40:19;;;;;;;6.80;5.20;;;22.10;85.10;;;;;;4940674;28;20102;-69
2023/07/29 09:42:50;;;;;;;7.20;5.10;;;22.20;86.90;;;;;;4950111;28;20479;-68
2023/07/29 09:45:23;;;;;;;7.97;4.70;;;22.20;86.70;;;;;;4946219;28;20428;-69
2023/07/29 09:47:49;;;;;;;8.50;4.18;;;22.10;85.00;;;;;;4945157;28;20019;-66
2023/07/29 09:50:15;;;;;;;6.43;3.65;;;22.00;85.50;;;;;;4948082;28;20080;-71
2023/07/29 09:52:41;;;;;;;8.32;4.43;;;22.10;85.80;;;;;;4955583;28;20030;-66
2023/07/29 09:55:09;;;;;;;4.68;3.60;;;21.90;84.60;;;;;;4937528;28;20075;-68
2023/07/29 09:57:35;;;;;;;4.45;3.05;;;21.70;85.40;;;;;;4943753;28;20459;-67
2023/07/29 10:00:04;;;;;;;4.82;3.05;;;21.70;84.80;;;;;;4949618;28;20085;-67
2023/07/29 10:02:30;;;;;;;4.57;3.35;;;21.80;84.40;;;;;;4944102;28;20444;-68
2023/07/29 10:04:57;;;;;;;6.05;3.03;;;22.00;83.80;;;;;;4950102;28;20027;-67
2023/07/29 10:07:24;;;;;;;5.43;3.00;;;22.00;82.30;;;;;;4948499;28;20043;-69
2023/07/29 10:09:52;;;;;;;3.83;2.38;;;22.10;83.00;;;;;;4950188;28;20059;-67
2023/07/29 10:12:19;;;;;;;3.28;2.03;;;21.90;83.30;;;;;;4950003;28;20046;-67
2023/07/29 10:14:47;;;;;;;5.07;2.15;;;21.80;83.00;;;;;;4947895;28;20478;-68
2023/07/29 10:17:15;;;;;;;3.75;2.05;;;21.50;83.40;;;;;;4946795;28;20063;-67
2023/07/29 10:19:42;;;;;;;4.90;2.08;;;21.40;83.30;;;;;;4948947;28;20242;-67
2023/07/29 10:22:08;;;;;;;5.15;2.08;;;21.20;83.70;;;;;;4948957;28;20102;-67
2023/07/29 10:24:34;;;;;;;3.90;2.17;;;21.20;83.70;;;;;;4949818;28;20372;-68
2023/07/29 10:27:01;;;;;;;2.67;1.80;;;21.40;83.90;;;;;;4949079;28;20439;-67
2023/07/29 10:29:38;;;;;;;4.28;1.90;;;21.50;83.20;;;;;;4943924;28;20041;-66
2023/07/29 10:32:05;;;;;;;2.85;1.92;;;21.60;82.30;;;;;;4956087;28;20066;-68
2023/07/29 10:34:33;;;;;;;4.07;1.80;;;21.70;82.30;;;;;;4948631;28;20478;-71
2023/07/29 10:36:59;;;;;;;5.47;2.30;;;21.70;81.30;;;;;;4947441;28;20027;-71
2023/07/29 10:39:25;;;;;;;3.45;1.77;;;21.60;81.10;;;;;;4940802;28;20035;-67
2023/07/29 10:42:06;;;;;;;4.07;2.10;;;21.40;81.80;;;;;;4942529;28;20040;-68
2023/07/29 10:44:43;;;;;;;3.22;2.17;;;21.80;82.90;;;;;;4949774;28;20042;-66
2023/07/29 10:47:16;;;;;;;4.28;1.92;;;21.90;80.90;;;;;;4951072;28;20066;-69
2023/07/29 10:49:42;;;;;;;3.13;2.30;;;22.00;81.30;;;;;;4946902;28;20388;-68
2023/07/29 10:52:08;;;;;;;6.22;2.40;;;22.20;81.90;;;;;;4946352;28;20114;-67
2023/07/29 10:54:47;;;;;;;6.97;2.70;;;22.00;80.10;;;;;;4942248;28;20159;-70
2023/07/29 10:57:15;;;;;;;5.57;2.40;;;22.50;80.70;;;;;;4938480;28;20046;-67
2023/07/29 10:59:41;;;;;;;5.38;2.50;;;22.80;79.50;;;;;;4952526;28;20126;-67
2023/07/29 11:02:19;;;;;;;6.38;2.78;;;22.70;78.60;;;;;;4953233;28;20183;-67
2023/07/29 11:04:51;;;;;;;6.07;2.90;;;22.70;79.20;;;;;;4944179;28;20383;-69
2023/07/29 11:07:16;;;;;;;5.40;3.40;;;22.90;77.60;;;;;;4946312;28;20125;-67
2023/07/29 11:09:48;;;;;;;4.70;3.00;;;22.90;76.50;;;;;;4946918;28;20157;-70
2023/07/29 11:12:47;;;;;;;7.25;3.50;;;23.20;76.30;;;;;;4943100;29;20039;-68
2023/07/29 11:15:26;;;;;;;5.70;3.00;;;23.50;73.90;;;;;;4949542;28;20027;-69
2023/07/29 11:18:01;;;;;;;4.32;2.97;;;24.00;75.10;;;;;;4951972;28;20042;-67
2023/07/29 11:20:29;;;;;;;4.85;2.80;;;24.40;74.10;;;;;;4950158;28;20031;-70
2023/07/29 11:22:56;;;;;;;5.30;2.70;;;24.80;71.20;;;;;;4948012;28;20031;-68
2023/07/29 11:25:23;;;;;;;4.35;2.80;;;24.50;72.20;;;;;;4948833;28;20023;-67
2023/07/29 11:27:48;;;;;;;5.57;2.55;;;24.10;72.90;;;;;;4949129;28;20061;-67
2023/07/29 11:30:15;;;;;;;5.15;2.47;;;23.70;73.20;;;;;;4949235;28;20479;-68
2023/07/29 11:32:43;;;;;;;4.40;2.90;;;23.30;75.40;;;;;;4946196;28;20058;-69
2023/07/29 11:35:11;;;;;;;6.55;2.85;;;22.90;75.10;;;;;;4952792;28;20039;-67
2023/07/29 11:37:37;;;;;;;5.53;3.00;;;23.50;73.40;;;;;;4943268;28;20031;-68
2023/07/29 11:40:05;;;;;;;5.40;2.60;;;24.10;72.70;;;;;;4943082;28;20131;-67
2023/07/29 11:42:34;;;;;;;4.38;2.35;;;24.30;71.70;;;;;;4948885;28;20158;-67
2023/07/29 11:45:05;;;;;;;3.55;2.30;;;24.90;70.30;;;;;;4947800;29;20197;-69
2023/07/29 11:47:32;;;;;;;3.85;2.38;;;24.50;70.90;;;;;;4951453;28;20023;-70
2023/07/29 11:50:00;;;;;;;4.00;2.05;;;24.20;72.30;;;;;;4947297;28;20039;-69
2023/07/29 11:52:27;;;;;;;5.35;2.40;;;23.60;71.40;;;;;;4947097;28;20047;-67
2023/07/29 11:54:53;;;;;;;4.57;2.22;;;23.20;72.10;;;;;;4947301;28;20130;-67
2023/07/29 11:57:20;;;;;;;3.60;1.83;;;24.10;71.20;;;;;;4953390;28;20075;-67
2023/07/29 11:59:46;;;;;;;3.17;2.00;;;24.80;70.20;;;;;;4951153;28;20515;-68
2023/07/29 12:02:14;;;;;;;5.90;2.28;;;25.10;69.60;;;;;;4953694;28;20039;-68
2023/07/29 12:04:41;;;;;;;4.20;2.00;;;25.00;68.80;;;;;;4951711;28;20035;-68
2023/07/29 12:07:07;;;;;;;3.40;1.85;;;25.30;68.60;;;;;;4951362;28;20649;-72
2023/07/29 12:09:34;;;;;;;3.25;1.73;;;25.20;67.10;;;;;;4948169;28;20054;-68
2023/07/29 12:12:00;;;;;;;2.67;1.70;;;25.20;67.40;;;;;;4977962;28;20118;-69
2023/07/29 12:14:28;;;;;;;2.35;1.48;;;25.00;66.30;;;;;;4951140;28;20050;-67
2023/07/29 12:16:53;;;;;;;3.80;1.52;;;25.30;67.10;;;;;;4948603;28;20508;-67
2023/07/29 12:19:21;;;;;;;3.63;1.48;;;25.50;67.10;;;;;;4949401;29;20063;-69
2023/07/29 12:21:47;;;;;;;3.13;1.50;;;25.40;65.20;;;;;;4947909;28;20113;-69
2023/07/29 12:24:13;;;;;;;3.75;1.55;;;24.50;66.50;;;;;;4948989;28;20107;-68
2023/07/29 12:26:40;;;;;;;2.28;1.23;;;24.10;68.70;;;;;;4953447;28;20034;-68
2023/07/29 12:29:16;;;;;;;3.40;1.63;;;24.30;68.60;;;;;;4951287;28;20035;-72
2023/07/29 12:31:42;;;;;;;3.60;1.70;;;24.20;69.50;;;;;;4952433;28;20051;-68